Ferme-Neuve, Canada
Current Conditions -  °F | °C
As of 6:21 PM on Wednesday 17 Dec 2014 (Local Time) from CYND Reporting Station
Light Snow Light Snow  
Wind Chill: 27°   Ceiling: 1700
Heat Index: 32°   Visibility: 3mi
Dew Point: 32°   Wind: 5mph
Humidity: 100%   Direction: 250°WSW
Pressure: 29.77"   Gusts: NA
Location:  46.7°N, 75.45°W
Report Text: CYND 172321Z 25004KT 3SM -SN SCT005 OVC017 00/00 A2977 RMK SF3ST5 SLP085
Loading
Personal Weather Stations






























Interactive Weather Map New forecast layout! Learn more

10-Day Weather Forecast

Advertisements
Track Severe Weather on mobile